Time;durP1;ratioP1;P1;durP2;ratioP2;P2;SDS_P1;SDS_P2;PMS_P1;PMS_P2;Temp;Humidity;BMP_temperature;BMP_pressure;BME280_temperature;BME280_humidity;BME280_pressure;Samples;Min_cycle;Max_cycle;Signal;HPM_P1;HPM_P2
2023/08/16 00:04:40;;;;;;;6.32;5.82;;;19.50;99.90;;;20.42;100.00;98164.81;10434363;28;20233;-80
2023/08/16 00:09:43;;;;;;;6.45;5.85;;;19.50;99.90;;;20.38;100.00;98167.34;10440077;28;20229;-82
2023/08/16 00:14:48;;;;;;;7.82;5.90;;;19.40;99.90;;;20.30;100.00;98163.69;10423497;28;20304;-81
2023/08/16 00:19:51;;;;;;;7.72;5.78;;;19.30;99.90;;;20.28;100.00;98161.03;10425445;28;20232;-80
2023/08/16 00:24:54;;;;;;;5.55;5.15;;;19.30;99.90;;;20.19;100.00;98151.31;10419962;28;20222;-80
2023/08/16 00:29:59;;;;;;;5.80;5.30;;;19.30;99.90;;;20.18;100.00;98165.16;10413182;28;20710;-80
2023/08/16 00:35:03;;;;;;;7.63;6.30;;;19.30;99.90;;;20.11;100.00;98162.34;10419981;28;20221;-82
2023/08/16 00:40:08;;;;;;;7.13;6.03;;;19.20;99.90;;;20.10;100.00;98161.47;10423035;28;20290;-81
2023/08/16 00:45:13;;;;;;;6.30;5.80;;;19.10;99.90;;;20.06;100.00;98153.56;10425893;28;20225;-80
2023/08/16 00:50:16;;;;;;;6.93;5.85;;;19.10;99.90;;;19.94;100.00;98155.03;10418939;28;20253;-82
2023/08/16 00:55:20;;;;;;;7.18;5.72;;;19.00;99.90;;;19.97;100.00;98146.44;10413996;28;20280;-82
2023/08/16 01:00:25;;;;;;;6.20;5.70;;;19.00;99.90;;;19.91;100.00;98133.31;10420516;28;20229;-80
2023/08/16 01:05:28;;;;;;;6.38;5.80;;;19.00;99.90;;;19.82;100.00;98122.72;10415600;28;20317;-81
2023/08/16 01:10:41;;;;;;;7.20;5.75;;;18.90;99.90;;;19.77;100.00;98114.81;10414178;28;20300;-81
2023/08/16 01:15:50;;;;;;;7.35;6.13;;;18.90;99.90;;;19.89;100.00;98119.47;10415406;28;20313;-80
2023/08/16 01:20:55;;;;;;;6.80;6.20;;;18.90;99.90;;;19.82;100.00;98114.94;10417204;28;20605;-80
2023/08/16 01:26:07;;;;;;;6.13;5.53;;;18.80;99.90;;;19.72;100.00;98117.31;10423058;28;20234;-82
2023/08/16 01:31:12;;;;;;;8.27;6.88;;;18.80;99.90;;;19.65;100.00;98120.56;10422723;28;20257;-81
2023/08/16 01:36:16;;;;;;;7.45;6.75;;;18.80;99.90;;;19.73;100.00;98113.88;10416280;28;20242;-78
2023/08/16 01:41:27;;;;;;;7.30;6.15;;;18.70;99.90;;;19.61;100.00;98116.13;10419493;28;20687;-82
2023/08/16 01:46:33;;;;;;;6.20;5.65;;;18.70;99.90;;;19.49;100.00;98124.47;10412238;28;20234;-80
2023/08/16 01:51:36;;;;;;;7.70;6.40;;;18.60;99.90;;;19.42;100.00;98113.88;10420009;28;20237;-81
2023/08/16 01:56:40;;;;;;;6.57;6.05;;;18.50;99.90;;;19.35;100.00;98100.78;10416054;28;20227;-80
2023/08/16 02:01:44;;;;;;;7.10;6.55;;;18.50;99.90;;;19.33;100.00;98094.66;10420504;28;20321;-82
2023/08/16 02:06:47;;;;;;;6.88;6.28;;;18.50;99.90;;;19.42;100.00;98101.81;10415544;28;20229;-81
2023/08/16 02:11:51;;;;;;;6.88;6.30;;;18.60;99.90;;;19.33;100.00;98105.03;10425783;28;20617;-81
2023/08/16 02:16:55;;;;;;;7.20;6.63;;;18.50;99.90;;;19.36;100.00;98112.00;10421985;28;20237;-80
2023/08/16 02:21:58;;;;;;;7.80;7.05;;;18.60;99.90;;;19.38;100.00;98114.66;10419728;28;20726;-80
2023/08/16 02:27:02;;;;;;;6.75;6.05;;;18.50;99.90;;;19.29;100.00;98110.13;10422082;28;20234;-81
2023/08/16 02:32:07;;;;;;;7.00;6.30;;;18.40;99.90;;;19.18;100.00;98103.75;10419835;28;20225;-80
2023/08/16 02:37:10;;;;;;;7.13;6.50;;;18.40;99.90;;;18.99;100.00;98108.41;10418484;28;20264;-81
2023/08/16 02:42:13;;;;;;;7.43;6.82;;;18.20;99.90;;;19.05;100.00;98102.53;10412820;28;20317;-80
2023/08/16 02:47:18;;;;;;;7.47;6.93;;;18.30;99.90;;;18.99;100.00;98100.66;10420681;28;20253;-80
2023/08/16 02:52:21;;;;;;;7.05;6.40;;;18.30;99.90;;;19.01;100.00;98099.00;10415219;28;20284;-81
2023/08/16 02:57:24;;;;;;;6.28;5.68;;;18.30;99.90;;;19.04;100.00;98082.66;10417809;28;20229;-80
2023/08/16 03:02:29;;;;;;;7.82;7.00;;;18.20;99.90;;;19.03;100.00;98079.19;10425499;28;20229;-80
2023/08/16 03:07:33;;;;;;;7.75;7.00;;;18.20;99.90;;;19.01;100.00;98080.84;10423553;28;20295;-80
2023/08/16 03:12:37;;;;;;;7.30;6.80;;;18.20;99.90;;;19.07;100.00;98072.38;10428542;28;20305;-82
2023/08/16 03:17:41;;;;;;;7.75;7.05;;;18.30;99.90;;;19.02;100.00;98069.63;10423709;28;20648;-81
2023/08/16 03:22:44;;;;;;;8.35;7.53;;;18.30;99.90;;;18.99;100.00;98079.06;10429259;28;20253;-82
2023/08/16 03:27:48;;;;;;;8.50;7.75;;;18.20;99.90;;;18.90;100.00;98085.72;10429514;28;20230;-81
2023/08/16 03:32:53;;;;;;;8.52;7.82;;;18.10;99.90;;;18.78;100.00;98084.53;10428917;28;20221;-81
2023/08/16 03:37:57;;;;;;;8.20;7.50;;;18.10;99.90;;;18.77;100.00;98094.00;10423247;28;20699;-81
2023/08/16 03:43:00;;;;;;;9.02;8.23;;;18.00;99.90;;;18.64;100.00;98097.91;10421031;28;20225;-82
2023/08/16 03:48:05;;;;;;;8.80;8.00;;;17.90;99.90;;;18.69;100.00;98106.69;10420547;28;20741;-80
2023/08/16 03:53:09;;;;;;;9.20;8.27;;;18.00;99.90;;;18.70;100.00;98112.75;10407700;28;20781;-81
2023/08/16 03:58:12;;;;;;;9.43;8.63;;;18.00;99.90;;;18.76;100.00;98118.13;10408522;28;20229;-80
2023/08/16 04:03:17;;;;;;;9.35;8.63;;;18.00;99.90;;;18.77;100.00;98127.69;10404855;28;20260;-80
2023/08/16 04:08:20;;;;;;;8.98;8.27;;;18.00;99.90;;;18.79;100.00;98126.00;10411741;28;20253;-81
2023/08/16 04:13:23;;;;;;;9.25;8.55;;;18.10;99.90;;;18.85;100.00;98138.25;10412303;28;20226;-80
2023/08/16 04:18:28;;;;;;;9.88;9.00;;;18.10;99.90;;;18.92;100.00;98149.69;10405785;28;20236;-81
2023/08/16 04:23:32;;;;;;;8.57;7.88;;;18.10;99.90;;;18.97;100.00;98167.13;10408787;28;20311;-80
2023/08/16 04:28:35;;;;;;;8.60;7.80;;;18.10;99.90;;;18.99;100.00;98177.50;10406791;28;20232;-80
2023/08/16 04:33:40;;;;;;;8.63;7.72;;;18.10;99.90;;;19.02;100.00;98186.22;10413880;28;20285;-81
2023/08/16 04:38:43;;;;;;;8.35;7.60;;;18.10;99.90;;;19.02;100.00;98194.00;10412224;28;20802;-81
2023/08/16 04:43:46;;;;;;;7.63;6.93;;;18.20;99.90;;;19.29;100.00;98214.66;10401749;28;20225;-80
2023/08/16 04:48:52;;;;;;;7.22;6.72;;;18.20;99.90;;;19.28;100.00;98219.78;10396496;28;20252;-78
2023/08/16 04:53:55;;;;;;;7.47;6.75;;;18.40;99.90;;;19.33;100.00;98215.63;10404907;28;20619;-79
2023/08/16 04:58:58;;;;;;;7.70;7.00;;;18.50;99.90;;;19.44;100.00;98232.34;10400156;28;20623;-82
2023/08/16 05:04:06;;;;;;;8.65;7.82;;;18.60;99.90;;;19.67;100.00;98242.53;10397447;28;20259;-80
2023/08/16 05:09:10;;;;;;;8.20;7.53;;;18.70;99.90;;;19.67;100.00;98237.34;10398537;28;20281;-80
2023/08/16 05:14:13;;;;;;;8.38;7.68;;;18.80;99.90;;;19.66;100.00;98231.28;10380307;28;20317;-81
2023/08/16 05:19:17;;;;;;;9.00;8.18;;;18.90;99.90;;;19.78;100.00;98234.19;10398963;28;20567;-79
2023/08/16 05:24:20;;;;;;;8.55;7.75;;;19.00;99.90;;;19.95;100.00;98238.97;10397762;28;20238;-79
2023/08/16 05:29:23;;;;;;;8.38;7.68;;;19.10;99.90;;;20.60;100.00;98231.06;10392256;28;20233;-79
2023/08/16 05:34:31;;;;;;;7.82;7.22;;;19.50;99.90;;;21.48;100.00;98221.72;10395432;28;20264;-79
2023/08/16 05:39:35;;;;;;;7.60;6.85;;;20.50;99.90;;;22.32;95.00;98218.91;10385994;28;20233;-78
2023/08/16 05:44:38;;;;;;;7.18;6.57;;;21.50;99.90;;;22.82;89.02;98227.53;10398584;28;20272;-78
2023/08/16 05:49:43;;;;;;;7.15;6.22;;;22.20;99.90;;;23.49;85.20;98221.44;10394131;28;20219;-80
2023/08/16 05:54:46;;;;;;;7.38;6.63;;;22.80;99.90;;;24.11;81.09;98204.72;10397606;28;20221;-82
2023/08/16 05:59:49;;;;;;;6.85;6.20;;;23.40;99.90;;;24.04;81.44;98216.88;10406874;28;20229;-83
2023/08/16 06:04:54;;;;;;;6.88;6.28;;;23.00;99.90;;;24.25;78.40;98203.97;10415808;28;20233;-83
2023/08/16 06:09:58;;;;;;;6.47;5.75;;;23.10;99.90;;;24.47;78.79;98207.66;10428830;28;20229;-83
2023/08/16 06:15:01;;;;;;;7.57;6.88;;;22.90;99.90;;;24.67;77.54;98202.59;10417423;28;20283;-83
2023/08/16 06:20:09;;;;;;;7.13;6.47;;;23.20;99.90;;;24.90;76.94;98191.38;10412239;28;20704;-84
2023/08/16 06:25:12;;;;;;;6.65;6.10;;;23.30;99.90;;;25.57;74.05;98175.97;10410872;28;20297;-82
2023/08/16 06:30:16;;;;;;;7.30;6.57;;;23.90;99.90;;;26.14;71.52;98172.59;10414259;28;20252;-84
2023/08/16 06:35:21;;;;;;;6.78;6.25;;;24.60;99.90;;;25.84;72.04;98158.59;10426518;28;20237;-84
2023/08/16 06:40:25;;;;;;;7.10;6.50;;;24.40;99.90;;;26.09;70.03;98145.50;10416275;28;20306;-84
2023/08/16 06:45:28;;;;;;;7.00;6.50;;;24.90;99.90;;;25.82;72.60;98144.59;10425294;28;20312;-84
2023/08/16 06:50:33;;;;;;;8.10;7.40;;;24.50;99.90;;;26.20;70.13;98167.34;10428281;28;20225;-84
2023/08/16 06:55:36;;;;;;;7.75;7.05;;;24.90;99.90;;;27.02;66.14;98171.59;10420783;28;20233;-84
2023/08/16 07:00:44;;;;;;;8.85;6.82;;;25.90;99.90;;;27.85;63.28;98158.94;10427466;28;20221;-84
2023/08/16 07:05:49;;;;;;;6.35;5.78;;;26.40;99.90;;;28.98;59.11;98158.78;10412219;28;20657;-86
2023/08/16 07:10:52;;;;;;;6.85;6.25;;;27.60;99.90;;;29.35;56.83;98166.25;10417157;28;20226;-86
2023/08/16 07:15:55;;;;;;;7.05;6.45;;;28.00;99.90;;;28.79;58.27;98162.50;10419214;28;20222;-85
2023/08/16 07:21:00;;;;;;;6.63;6.03;;;27.00;99.90;;;29.10;59.38;98161.31;10411415;28;20214;-85
2023/08/16 07:26:04;;;;;;;6.25;5.75;;;27.20;99.90;;;30.36;54.47;98158.63;10430266;28;20245;-85
2023/08/16 07:31:08;;;;;;;6.55;5.93;;;28.50;99.90;;;30.06;56.24;98152.94;10437957;28;20222;-85
2023/08/16 07:36:12;;;;;;;6.22;5.72;;;27.90;99.90;;;30.95;53.75;98156.69;10435662;28;20241;-86
2023/08/16 07:41:16;;;;;;;6.47;5.93;;;29.00;99.90;;;32.03;49.11;98156.09;10438224;28;20230;-87
2023/08/16 07:46:19;;;;;;;6.40;5.78;;;30.10;99.90;;;32.28;48.91;98158.16;10434017;28;20259;-85
2023/08/16 07:51:24;;;;;;;6.28;5.70;;;29.80;99.90;;;32.53;48.44;98148.66;10438803;28;20222;-86
2023/08/16 07:56:27;;;;;;;6.47;5.88;;;30.10;99.90;;;31.75;50.40;98161.13;10432104;28;20694;-86
2023/08/16 08:01:31;;;;;;;7.80;5.65;;;29.60;99.90;;;31.06;52.10;98159.09;10430820;28;20217;-85
2023/08/16 08:06:36;;;;;;;7.22;5.47;;;29.20;99.90;;;30.73;53.31;98161.47;10422154;28;20228;-85
2023/08/16 08:11:39;;;;;;;6.55;5.88;;;29.30;99.90;;;31.01;54.08;98160.97;10427201;28;20301;-85
2023/08/16 08:16:42;;;;;;;6.50;5.90;;;29.60;99.90;;;31.01;53.69;98150.41;10420347;28;20691;-87
2023/08/16 08:21:47;;;;;;;6.18;5.68;;;29.50;99.90;;;31.31;52.92;98147.13;10426914;28;20237;-87
2023/08/16 08:26:50;;;;;;;6.15;5.65;;;30.10;99.90;;;31.79;51.41;98154.88;10432470;28;20236;-85
2023/08/16 08:31:54;;;;;;;7.00;6.18;;;31.00;99.90;;;31.82;50.69;98157.47;10422299;28;20293;-87
2023/08/16 08:37:00;;;;;;;6.28;5.75;;;30.90;99.90;;;32.07;50.33;98151.59;10427629;28;20225;-86
2023/08/16 08:42:05;;;;;;;5.80;5.40;;;31.20;99.90;;;32.23;50.32;98149.44;10428113;28;20225;-85
2023/08/16 08:47:09;;;;;;;6.10;5.50;;;31.20;99.90;;;32.37;49.63;98154.41;10424756;28;20233;-83
2023/08/16 08:52:21;;;;;;;6.80;6.07;;;31.20;99.90;;;32.39;50.13;98155.19;10421490;28;20229;-85
2023/08/16 08:57:26;;;;;;;5.97;5.57;;;31.40;99.90;;;32.58;49.56;98152.97;10424595;28;20228;-84
2023/08/16 09:02:33;;;;;;;6.55;6.03;;;31.70;99.90;;;32.59;47.76;98158.22;10422940;28;20283;-85
2023/08/16 09:07:40;;;;;;;6.15;5.50;;;31.60;98.70;;;32.31;47.77;98160.72;10415897;28;20241;-86
2023/08/16 09:12:44;;;;;;;6.20;5.45;;;31.60;98.30;;;32.63;48.52;98157.25;10428224;28;20252;-83
2023/08/16 09:17:50;;;;;;;5.93;5.40;;;31.80;98.80;;;32.64;46.88;98161.63;10416685;28;20864;-83
2023/08/16 09:22:54;;;;;;;6.82;6.20;;;31.80;97.00;;;32.24;47.63;98144.09;10421923;28;20220;-86
2023/08/16 09:27:58;;;;;;;7.28;6.00;;;31.60;97.50;;;32.35;48.42;98135.03;10426766;28;20295;-84
2023/08/16 09:33:02;;;;;;;5.75;5.10;;;31.70;98.30;;;32.78;45.42;98147.16;10430997;28;20217;-83
2023/08/16 09:38:06;;;;;;;5.82;5.25;;;32.20;95.60;;;32.56;46.69;98133.63;10425450;28;20232;-83
2023/08/16 09:43:12;;;;;;;5.82;5.20;;;31.90;96.40;;;32.13;46.13;98135.56;10421215;28;20325;-85
2023/08/16 09:48:15;;;;;;;5.85;5.35;;;31.50;95.70;;;32.23;45.69;98123.00;10417944;28;20248;-85
2023/08/16 09:53:21;;;;;;;5.70;5.30;;;31.60;95.80;;;32.22;46.80;98119.47;10420309;28;20608;-83
2023/08/16 09:58:39;;;;;;;5.38;4.88;;;31.70;96.30;;;32.39;46.39;98112.84;10425274;28;20705;-84
2023/08/16 10:03:44;;;;;;;5.50;5.00;;;32.00;95.30;;;32.84;45.37;98102.81;10421146;28;20223;-82
2023/08/16 10:09:10;;;;;;;6.00;4.97;;;32.30;95.30;;;32.73;45.70;98111.03;10415367;28;20221;-84
2023/08/16 10:14:14;;;;;;;5.00;4.53;;;32.30;94.60;;;32.17;45.82;98105.50;10435885;28;20297;-85
2023/08/16 10:19:19;;;;;;;4.60;4.20;;;31.50;95.10;;;32.60;45.46;98103.50;10425450;28;20226;-85
2023/08/16 10:24:25;;;;;;;4.40;4.10;;;32.20;94.80;;;32.33;44.80;98102.44;10430668;28;20237;-85
2023/08/16 10:29:37;;;;;;;4.43;4.07;;;31.80;94.30;;;32.63;43.75;98099.00;10432743;28;20233;-85
2023/08/16 10:34:41;;;;;;;4.28;3.97;;;32.20;93.50;;;32.93;43.45;98085.78;10430923;28;20825;-84
2023/08/16 10:39:51;;;;;;;4.53;4.13;;;32.60;92.60;;;32.80;42.82;98089.72;10432221;28;20225;-85
2023/08/16 10:44:57;;;;;;;4.25;3.95;;;32.40;92.70;;;33.12;42.61;98083.50;10424843;28;20229;-86
2023/08/16 10:50:01;;;;;;;3.95;3.65;;;32.60;92.20;;;32.66;42.80;98085.66;10429612;28;20225;-85
2023/08/16 10:55:07;;;;;;;3.90;3.60;;;32.00;92.80;;;32.68;42.27;98081.22;10421842;28;20230;-86
2023/08/16 11:00:12;;;;;;;4.07;3.70;;;32.20;91.70;;;32.48;41.57;98086.16;10434036;28;20229;-84
2023/08/16 11:05:19;;;;;;;4.22;3.92;;;31.80;91.50;;;32.60;41.39;98085.84;10428024;28;20229;-86
2023/08/16 11:10:34;;;;;;;3.53;3.22;;;32.10;91.30;;;32.44;42.01;98081.84;10431619;28;20232;-86
2023/08/16 11:15:37;;;;;;;3.75;3.45;;;31.90;91.70;;;32.45;41.27;98076.56;10424458;28;20849;-84
2023/08/16 11:20:41;;;;;;;3.63;3.33;;;31.80;91.00;;;32.61;42.23;98076.97;10425642;28;20290;-85
2023/08/16 11:25:45;;;;;;;8.32;3.63;;;32.10;91.50;;;32.56;40.67;98067.44;10429784;28;20312;-84
2023/08/16 11:30:56;;;;;;;3.72;3.45;;;32.10;90.50;;;31.83;41.85;98071.94;10424031;28;20288;-84
2023/08/16 11:36:00;;;;;;;4.25;3.50;;;31.40;91.10;;;31.69;42.67;98055.53;10422262;28;20336;-84
2023/08/16 11:41:06;;;;;;;3.80;3.50;;;31.10;91.50;;;31.70;42.83;98040.53;10423552;28;20580;-83
2023/08/16 11:46:09;;;;;;;3.45;3.25;;;31.20;91.50;;;31.49;42.29;98057.78;10424991;28;20594;-84
2023/08/16 11:51:12;;;;;;;3.45;3.25;;;30.90;91.20;;;31.73;42.33;98046.59;10424352;28;20990;-85
2023/08/16 11:56:16;;;;;;;3.60;3.30;;;31.10;91.00;;;31.48;44.02;98041.06;10422729;28;20263;-84
2023/08/16 12:01:24;;;;;;;3.80;3.50;;;30.90;92.30;;;31.73;42.91;98037.81;10420505;28;20726;-84
2023/08/16 12:06:28;;;;;;;4.72;3.30;;;31.20;91.20;;;31.57;41.31;98046.13;10426683;28;20256;-84
2023/08/16 12:11:35;;;;;;;3.67;3.38;;;31.10;90.00;;;31.42;41.99;98041.22;10420427;28;20233;-84
2023/08/16 12:16:38;;;;;;;3.50;3.17;;;30.90;90.40;;;31.73;40.97;98030.75;10410614;28;20240;-84
2023/08/16 12:21:41;;;;;;;3.42;3.13;;;31.20;89.70;;;31.67;41.02;98024.75;10416012;28;20264;-85
2023/08/16 12:26:46;;;;;;;3.75;3.45;;;31.00;90.00;;;31.86;41.62;98029.53;10419256;28;20316;-85
2023/08/16 12:31:49;;;;;;;3.42;3.03;;;31.20;90.30;;;32.01;40.59;98014.22;10425516;28;20248;-83
2023/08/16 12:36:52;;;;;;;3.60;3.30;;;31.50;89.20;;;32.00;39.63;98001.91;10427620;28;20229;-84
2023/08/16 12:41:57;;;;;;;3.42;3.20;;;31.50;87.90;;;31.80;39.52;97997.97;10422485;28;20312;-84
2023/08/16 12:47:00;;;;;;;3.85;2.80;;;31.20;87.10;;;31.79;38.92;97992.72;10413575;28;20221;-85
2023/08/16 12:52:04;;;;;;;3.35;3.05;;;31.20;86.10;;;31.93;38.84;97989.75;10423604;28;20221;-84
2023/08/16 12:57:09;;;;;;;3.30;2.97;;;31.50;86.20;;;32.04;39.54;97987.69;10415283;28;20251;-85
2023/08/16 13:02:12;;;;;;;2.88;2.67;;;31.50;86.20;;;31.73;38.70;97983.16;10422323;28;20317;-85
2023/08/16 13:07:17;;;;;;;3.63;3.33;;;31.20;84.30;;;31.77;38.59;97973.41;10412031;28;20248;-82
2023/08/16 13:12:33;;;;;;;3.30;3.00;;;31.30;84.70;;;31.85;40.16;97972.28;10416145;28;20225;-84
2023/08/16 13:17:36;;;;;;;3.65;3.35;;;31.30;87.00;;;31.68;38.47;97957.75;10413774;28;20233;-85
2023/08/16 13:22:48;;;;;;;3.38;3.13;;;31.20;84.90;;;31.87;38.42;97959.88;10419838;28;20229;-84
2023/08/16 13:27:54;;;;;;;3.58;3.38;;;31.30;85.20;;;31.89;39.72;97961.63;10402980;28;20267;-85
2023/08/16 13:33:18;;;;;;;3.80;3.50;;;31.30;86.60;;;32.25;38.91;97944.75;10319832;28;20227;-84
2023/08/16 13:38:24;;;;;;;3.78;3.47;;;31.60;85.70;;;32.20;39.51;97945.81;10313679;28;20663;-85
2023/08/16 13:43:39;;;;;;;3.78;3.47;;;31.50;86.40;;;32.29;40.04;97943.75;10334536;28;20226;-85
2023/08/16 13:48:48;;;;;;;4.05;3.65;;;31.60;87.10;;;32.06;40.57;97944.41;10343969;28;20226;-84
2023/08/16 13:53:51;;;;;;;4.85;3.65;;;31.40;88.20;;;32.33;41.01;97951.59;10408153;28;20235;-84
2023/08/16 13:58:55;;;;;;;5.05;3.78;;;31.60;88.80;;;31.99;41.66;97939.31;10409395;28;20221;-83
2023/08/16 14:03:59;;;;;;;3.80;3.50;;;31.30;89.30;;;32.18;40.55;97931.75;10400263;28;20320;-83
2023/08/16 14:09:03;;;;;;;4.00;3.70;;;31.40;88.70;;;32.02;40.93;97926.00;10409447;28;20228;-85
2023/08/16 14:14:08;;;;;;;4.38;4.00;;;31.40;88.40;;;32.31;40.24;97927.84;10408017;28;20328;-83
2023/08/16 14:19:11;;;;;;;5.78;4.50;;;31.70;87.60;;;31.99;40.80;97920.81;10408855;28;20225;-84
2023/08/16 14:24:14;;;;;;;4.40;4.00;;;31.50;87.40;;;32.20;40.42;97917.56;10406613;28;20693;-85
2023/08/16 14:29:54;;;;;;;4.25;3.95;;;31.50;87.80;;;32.25;39.93;97913.00;10403677;28;20925;-85
2023/08/16 14:35:12;;;;;;;4.38;3.97;;;31.40;87.70;;;32.34;40.25;97892.47;10371801;28;20217;-82
2023/08/16 14:41:14;;;;;;;4.38;3.97;;;31.50;88.10;;;32.31;40.06;97911.97;10402055;28;20231;-83
2023/08/16 14:46:19;;;;;;;3.88;3.58;;;31.50;87.10;;;32.11;40.88;97904.59;10415531;28;20348;-83
2023/08/16 14:51:26;;;;;;;4.45;3.97;;;31.30;89.20;;;32.15;40.75;97900.94;10413790;28;20233;-82
2023/08/16 14:56:33;;;;;;;3.75;3.50;;;31.30;88.10;;;32.46;40.41;97898.28;10393628;28;20222;-82
2023/08/16 15:01:42;;;;;;;4.03;3.58;;;31.50;88.30;;;32.23;39.53;97872.50;10418743;28;20254;-82
2023/08/16 15:06:45;;;;;;;3.33;3.13;;;31.50;86.60;;;31.97;40.78;97869.75;10405745;28;20675;-83
2023/08/16 15:11:48;;;;;;;3.83;3.20;;;31.10;88.40;;;31.95;40.55;97876.84;10418343;28;20229;-83
2023/08/16 15:16:55;;;;;;;3.45;3.15;;;31.00;87.50;;;31.35;41.09;97887.25;10411199;28;20265;-85
2023/08/16 15:21:59;;;;;;;3.03;2.83;;;30.60;87.70;;;31.22;41.76;97906.94;10415678;28;20225;-85
2023/08/16 15:27:02;;;;;;;3.10;2.90;;;30.40;89.40;;;31.17;42.05;97900.91;10400996;28;20229;-81
2023/08/16 15:32:07;;;;;;;4.28;3.10;;;30.20;90.00;;;31.25;42.32;97898.03;10403481;28;20226;-82
2023/08/16 15:37:10;;;;;;;3.10;2.90;;;30.20;90.20;;;31.16;44.07;97901.78;10412561;28;20328;-81
2023/08/16 15:42:13;;;;;;;3.40;3.10;;;30.20;91.70;;;31.04;44.57;97912.66;10405067;28;20252;-81
2023/08/16 15:47:18;;;;;;;2.95;2.80;;;30.10;91.80;;;30.93;46.39;97910.25;10393224;28;20659;-80
2023/08/16 15:52:21;;;;;;;3.20;2.95;;;29.90;93.60;;;30.90;47.65;97912.97;10402273;28;20226;-81
2023/08/16 15:57:24;;;;;;;3.03;2.80;;;29.80;94.30;;;30.88;48.91;97909.53;10407598;28;20329;-82
2023/08/16 16:02:29;;;;;;;3.72;3.42;;;29.70;95.40;;;30.58;49.68;97913.69;10404566;28;20249;-81
2023/08/16 16:07:32;;;;;;;3.22;2.97;;;29.40;96.00;;;30.40;50.65;97912.34;10400507;28;20234;-81
2023/08/16 16:12:36;;;;;;;4.38;3.30;;;29.30;97.00;;;30.24;52.21;97919.69;10399318;28;20233;-81
2023/08/16 16:17:40;;;;;;;4.13;3.28;;;29.10;98.30;;;30.08;53.45;97927.03;10402352;28;20232;-80
2023/08/16 16:22:44;;;;;;;3.33;3.03;;;28.90;99.70;;;29.89;54.95;97937.06;10392189;28;20221;-82
2023/08/16 16:27:48;;;;;;;3.67;3.30;;;28.70;99.90;;;29.70;56.17;97938.28;10399136;28;20225;-81
2023/08/16 16:32:53;;;;;;;3.90;3.55;;;28.50;99.90;;;29.50;57.01;97941.25;10404475;28;20228;-80
2023/08/16 16:37:57;;;;;;;4.30;3.90;;;28.30;99.90;;;29.38;57.70;97934.44;10407434;28;20289;-81
2023/08/16 16:43:00;;;;;;;3.78;3.50;;;28.20;99.90;;;29.25;58.98;97938.19;10401545;28;20323;-80
2023/08/16 16:48:06;;;;;;;4.35;3.58;;;28.10;99.90;;;29.25;58.72;97933.78;10402654;28;20745;-80
2023/08/16 16:53:11;;;;;;;4.50;4.10;;;28.10;99.90;;;29.06;59.70;97935.81;10402718;28;20233;-78
2023/08/16 16:58:14;;;;;;;4.22;3.92;;;27.90;99.90;;;29.01;59.94;97937.63;10402536;28;20825;-81
2023/08/16 17:03:19;;;;;;;4.68;4.28;;;27.90;99.90;;;28.86;63.34;97956.28;10404421;28;20235;-81
2023/08/16 17:08:22;;;;;;;5.10;4.70;;;27.70;99.90;;;28.77;65.51;98002.03;10398531;28;21101;-80
2023/08/16 17:13:25;;;;;;;4.00;3.60;;;27.60;99.90;;;28.71;52.64;97991.59;10410336;28;20235;-80
2023/08/16 17:18:31;;;;;;;4.07;3.65;;;27.60;99.20;;;28.33;53.16;97989.38;10405117;28;20326;-81
2023/08/16 17:23:34;;;;;;;6.70;3.45;;;27.30;99.00;;;27.88;62.59;98017.91;10404891;28;20605;-79
2023/08/16 17:28:38;;;;;;;6.10;4.32;;;26.80;99.90;;;24.66;80.30;97983.81;10414264;28;20224;-79
2023/08/16 17:33:42;;;;;;;4.07;3.67;;;24.20;99.90;;;22.82;94.64;98018.13;10402520;28;20309;-78
2023/08/16 17:38:47;;;;;;;5.55;4.97;;;22.60;99.90;;;22.55;100.00;98039.50;10409310;28;20230;-79
2023/08/16 17:43:52;;;;;;;7.57;5.68;;;22.10;99.90;;;22.42;100.00;98034.13;10415005;28;20230;-79
2023/08/16 17:48:56;;;;;;;5.78;5.18;;;21.90;99.90;;;21.92;100.00;98016.06;10411210;28;20336;-78
2023/08/16 17:54:00;;;;;;;6.60;5.88;;;21.60;99.90;;;21.73;100.00;98016.66;10403286;28;20225;-78
2023/08/16 17:59:03;;;;;;;7.68;5.63;;;21.40;99.90;;;21.63;100.00;97996.53;10403421;28;20318;-78
2023/08/16 18:04:07;;;;;;;8.85;6.05;;;21.20;99.90;;;21.62;100.00;97959.22;10394173;28;20606;-77
2023/08/16 18:09:11;;;;;;;5.90;5.38;;;21.30;99.90;;;21.50;100.00;97974.66;10391401;28;20243;-78
2023/08/16 18:14:14;;;;;;;4.75;4.00;;;21.20;99.90;;;21.34;100.00;97952.69;10391863;28;20229;-77
2023/08/16 18:19:18;;;;;;;5.78;4.22;;;21.00;99.90;;;21.51;100.00;97974.66;10394497;28;20607;-78
2023/08/16 18:24:23;;;;;;;5.03;4.63;;;21.10;99.90;;;21.53;100.00;97959.97;10396261;28;20260;-78
2023/08/16 18:29:29;;;;;;;4.93;4.47;;;21.20;99.90;;;21.42;100.00;97960.66;10398475;28;20271;-78
2023/08/16 18:34:33;;;;;;;5.03;4.53;;;21.10;99.90;;;21.32;100.00;97957.88;10407034;28;20230;-78
2023/08/16 18:39:36;;;;;;;4.93;4.45;;;21.00;99.90;;;21.22;100.00;97962.91;10412866;28;20229;-78
2023/08/16 18:44:40;;;;;;;5.07;4.68;;;20.90;99.90;;;21.23;100.00;97975.03;10389636;28;20670;-78
2023/08/16 18:49:45;;;;;;;5.18;4.63;;;20.80;99.90;;;21.15;100.00;97986.19;10413635;28;20285;-77
2023/08/16 18:54:48;;;;;;;4.20;3.80;;;20.80;99.90;;;21.08;100.00;97981.72;10414630;28;20232;-77
2023/08/16 18:59:52;;;;;;;5.28;4.43;;;20.70;99.90;;;20.95;100.00;97990.19;10402194;28;20317;-78
2023/08/16 19:04:56;;;;;;;4.85;4.43;;;20.60;99.90;;;21.17;100.00;98006.13;10415421;28;20715;-79
2023/08/16 19:10:00;;;;;;;5.32;4.85;;;20.70;99.90;;;21.40;100.00;98028.22;10411184;28;20671;-79
2023/08/16 19:15:04;;;;;;;5.50;5.00;;;20.90;99.90;;;21.36;100.00;98047.22;10409700;28;20240;-77
2023/08/16 19:20:11;;;;;;;6.28;4.78;;;20.80;99.90;;;21.48;100.00;98044.84;10405078;28;20503;-78
2023/08/16 19:25:14;;;;;;;5.10;4.63;;;20.90;99.90;;;21.42;100.00;98043.88;10409648;28;20328;-79
2023/08/16 19:30:18;;;;;;;4.93;4.53;;;20.80;99.90;;;21.51;100.00;98029.28;10410152;28;20226;-77
2023/08/16 19:35:22;;;;;;;4.40;4.10;;;20.90;99.90;;;21.48;100.00;98016.25;10415905;28;20687;-78
2023/08/16 19:40:26;;;;;;;4.68;4.10;;;20.70;99.90;;;21.35;100.00;97985.66;10404097;28;20226;-78
2023/08/16 19:45:29;;;;;;;5.45;3.75;;;20.60;99.90;;;21.14;100.00;97957.56;10404205;28;20682;-78
2023/08/16 19:50:34;;;;;;;4.43;3.65;;;20.50;99.90;;;20.99;100.00;97981.56;10416656;28;20859;-78
2023/08/16 19:55:38;;;;;;;4.57;4.15;;;20.40;99.90;;;21.06;100.00;97995.53;10415998;28;20257;-78
2023/08/16 20:00:41;;;;;;;5.20;4.70;;;20.50;99.90;;;21.21;100.00;98007.97;10406830;28;20275;-79
2023/08/16 20:05:46;;;;;;;5.43;4.95;;;20.60;99.90;;;21.27;100.00;98013.25;10413385;28;20602;-79
2023/08/16 20:10:49;;;;;;;4.70;4.40;;;20.70;99.90;;;21.38;100.00;98016.09;10404442;28;20218;-77
2023/08/16 20:15:52;;;;;;;4.22;3.85;;;20.70;99.90;;;21.41;100.00;98011.81;10411256;28;20304;-78
2023/08/16 20:20:57;;;;;;;4.18;3.88;;;20.70;99.90;;;21.41;100.00;98027.41;10404816;28;20221;-78
2023/08/16 20:26:00;;;;;;;5.55;4.10;;;20.70;99.90;;;21.61;100.00;98043.34;10420333;28;20228;-80
2023/08/16 20:31:04;;;;;;;5.18;4.63;;;20.80;99.90;;;21.52;100.00;98040.59;10419405;28;20293;-79
2023/08/16 20:36:08;;;;;;;6.20;4.30;;;20.70;99.90;;;21.44;100.00;98024.84;10419810;28;20618;-79
2023/08/16 20:41:15;;;;;;;5.20;4.15;;;20.70;99.90;;;21.40;100.00;98029.97;10414396;28;20222;-80
2023/08/16 20:46:18;;;;;;;5.00;4.60;;;20.60;99.90;;;21.36;100.00;98018.63;10418417;28;20230;-80
2023/08/16 20:51:23;;;;;;;5.05;4.40;;;20.60;99.90;;;21.34;100.00;98012.50;10426025;28;20250;-79
2023/08/16 20:56:26;;;;;;;5.30;4.80;;;20.60;99.90;;;21.39;100.00;98013.50;10408253;28;20233;-77
2023/08/16 21:01:29;;;;;;;4.68;4.38;;;20.60;99.90;;;21.33;100.00;98005.56;10407991;28;20297;-80
2023/08/16 21:06:33;;;;;;;4.93;4.53;;;20.50;99.90;;;21.38;100.00;97997.88;10404688;28;20654;-79